sensor_id;sensor_type;location;lat;lon;timestamp;temperature;humidity
23010;DHT22;11671;49.990;8.028;2023-04-19T00:01:00;11.50;99.90
23010;DHT22;11671;49.990;8.028;2023-04-19T00:03:26;11.50;99.90
23010;DHT22;11671;49.990;8.028;2023-04-19T00:05:52;11.60;99.90
23010;DHT22;11671;49.990;8.028;2023-04-19T00:08:24;11.50;99.90
23010;DHT22;11671;49.990;8.028;2023-04-19T00:10:50;11.60;99.90
23010;DHT22;11671;49.990;8.028;2023-04-19T00:13:15;11.60;99.90
23010;DHT22;11671;49.990;8.028;2023-04-19T00:15:41;11.50;99.90
23010;DHT22;11671;49.990;8.028;2023-04-19T00:18:06;11.50;99.90
23010;DHT22;11671;49.990;8.028;2023-04-19T00:20:32;11.50;99.90
23010;DHT22;11671;49.990;8.028;2023-04-19T00:22:58;11.50;99.90
23010;DHT22;11671;49.990;8.028;2023-04-19T00:25:24;11.50;99.90
23010;DHT22;11671;49.990;8.028;2023-04-19T00:27:49;11.50;99.90
23010;DHT22;11671;49.990;8.028;2023-04-19T00:30:15;11.50;99.90
23010;DHT22;11671;49.990;8.028;2023-04-19T00:32:40;11.50;99.90
23010;DHT22;11671;49.990;8.028;2023-04-19T00:35:06;11.50;99.90
23010;DHT22;11671;49.990;8.028;2023-04-19T00:37:32;11.40;99.90
23010;DHT22;11671;49.990;8.028;2023-04-19T00:39:57;11.40;99.90
23010;DHT22;11671;49.990;8.028;2023-04-19T00:42:23;11.40;99.90
23010;DHT22;11671;49.990;8.028;2023-04-19T00:44:48;11.40;99.90
23010;DHT22;11671;49.990;8.028;2023-04-19T00:47:14;11.40;99.90
23010;DHT22;11671;49.990;8.028;2023-04-19T00:49:40;11.40;99.90
23010;DHT22;11671;49.990;8.028;2023-04-19T00:52:06;11.40;99.90
23010;DHT22;11671;49.990;8.028;2023-04-19T00:54:32;11.40;99.90
23010;DHT22;11671;49.990;8.028;2023-04-19T00:56:58;11.40;99.90
23010;DHT22;11671;49.990;8.028;2023-04-19T00:59:25;11.40;99.90
23010;DHT22;11671;49.990;8.028;2023-04-19T01:01:51;11.40;99.90
23010;DHT22;11671;49.990;8.028;2023-04-19T01:04:16;11.40;99.90
23010;DHT22;11671;49.990;8.028;2023-04-19T01:06:42;11.40;99.90
23010;DHT22;11671;49.990;8.028;2023-04-19T01:09:08;11.40;99.90
23010;DHT22;11671;49.990;8.028;2023-04-19T01:11:33;11.50;99.90
23010;DHT22;11671;49.990;8.028;2023-04-19T01:13:59;11.50;99.90
23010;DHT22;11671;49.990;8.028;2023-04-19T01:16:25;11.50;99.90
23010;DHT22;11671;49.990;8.028;2023-04-19T01:18:51;11.60;99.90
23010;DHT22;11671;49.990;8.028;2023-04-19T01:21:17;11.70;99.90
23010;DHT22;11671;49.990;8.028;2023-04-19T01:23:43;11.70;99.90
23010;DHT22;11671;49.990;8.028;2023-04-19T01:26:08;11.80;99.90
23010;DHT22;11671;49.990;8.028;2023-04-19T01:28:34;11.80;99.90
23010;DHT22;11671;49.990;8.028;2023-04-19T01:31:00;11.80;99.90
23010;DHT22;11671;49.990;8.028;2023-04-19T01:33:25;11.70;99.90
23010;DHT22;11671;49.990;8.028;2023-04-19T01:35:51;11.80;99.90
23010;DHT22;11671;49.990;8.028;2023-04-19T01:38:16;11.80;99.90
23010;DHT22;11671;49.990;8.028;2023-04-19T01:40:43;11.80;99.90
23010;DHT22;11671;49.990;8.028;2023-04-19T01:43:11;11.80;99.90
23010;DHT22;11671;49.990;8.028;2023-04-19T01:45:37;11.90;99.90
23010;DHT22;11671;49.990;8.028;2023-04-19T01:48:03;11.90;99.90
23010;DHT22;11671;49.990;8.028;2023-04-19T01:50:31;11.90;99.90
23010;DHT22;11671;49.990;8.028;2023-04-19T01:52:57;11.90;99.90
23010;DHT22;11671;49.990;8.028;2023-04-19T01:55:23;11.90;99.90
23010;DHT22;11671;49.990;8.028;2023-04-19T01:57:48;11.80;99.90
23010;DHT22;11671;49.990;8.028;2023-04-19T02:00:14;11.90;99.90
23010;DHT22;11671;49.990;8.028;2023-04-19T02:02:42;11.80;99.90
23010;DHT22;11671;49.990;8.028;2023-04-19T02:05:08;11.80;99.90
23010;DHT22;11671;49.990;8.028;2023-04-19T02:07:33;11.90;99.90
23010;DHT22;11671;49.990;8.028;2023-04-19T02:09:59;11.90;99.90
23010;DHT22;11671;49.990;8.028;2023-04-19T02:12:28;11.90;99.90
23010;DHT22;11671;49.990;8.028;2023-04-19T02:14:55;11.90;99.90
23010;DHT22;11671;49.990;8.028;2023-04-19T02:17:24;12.00;99.90
23010;DHT22;11671;49.990;8.028;2023-04-19T02:19:50;12.00;99.90
23010;DHT22;11671;49.990;8.028;2023-04-19T02:22:15;12.00;99.90
23010;DHT22;11671;49.990;8.028;2023-04-19T02:24:41;12.00;99.90
23010;DHT22;11671;49.990;8.028;2023-04-19T02:27:07;11.90;99.90
23010;DHT22;11671;49.990;8.028;2023-04-19T02:29:32;11.90;99.90
23010;DHT22;11671;49.990;8.028;2023-04-19T02:31:58;12.00;99.90
23010;DHT22;11671;49.990;8.028;2023-04-19T02:34:23;11.90;99.90
23010;DHT22;11671;49.990;8.028;2023-04-19T02:36:49;11.90;99.90
23010;DHT22;11671;49.990;8.028;2023-04-19T02:39:15;12.00;99.90
23010;DHT22;11671;49.990;8.028;2023-04-19T02:41:41;12.00;99.90
23010;DHT22;11671;49.990;8.028;2023-04-19T02:44:07;11.90;99.90
23010;DHT22;11671;49.990;8.028;2023-04-19T02:46:33;11.90;99.90
23010;DHT22;11671;49.990;8.028;2023-04-19T02:49:01;12.00;99.90
23010;DHT22;11671;49.990;8.028;2023-04-19T02:51:27;12.00;99.90
23010;DHT22;11671;49.990;8.028;2023-04-19T02:53:52;12.00;99.90
23010;DHT22;11671;49.990;8.028;2023-04-19T02:56:18;12.00;99.90
23010;DHT22;11671;49.990;8.028;2023-04-19T02:58:43;12.00;99.90
23010;DHT22;11671;49.990;8.028;2023-04-19T03:01:09;12.00;99.90
23010;DHT22;11671;49.990;8.028;2023-04-19T03:03:35;12.00;99.90
23010;DHT22;11671;49.990;8.028;2023-04-19T03:06:01;12.00;99.90
23010;DHT22;11671;49.990;8.028;2023-04-19T03:08:26;12.00;99.90
23010;DHT22;11671;49.990;8.028;2023-04-19T03:10:52;12.10;99.90
23010;DHT22;11671;49.990;8.028;2023-04-19T03:13:17;12.10;99.90
23010;DHT22;11671;49.990;8.028;2023-04-19T03:15:43;12.20;99.90
23010;DHT22;11671;49.990;8.028;2023-04-19T03:18:08;12.20;99.90
23010;DHT22;11671;49.990;8.028;2023-04-19T03:20:34;12.10;99.90
23010;DHT22;11671;49.990;8.028;2023-04-19T03:23:00;12.00;99.90
23010;DHT22;11671;49.990;8.028;2023-04-19T03:25:25;12.00;99.90
23010;DHT22;11671;49.990;8.028;2023-04-19T03:27:51;12.00;99.90
23010;DHT22;11671;49.990;8.028;2023-04-19T03:30:16;12.10;99.90
23010;DHT22;11671;49.990;8.028;2023-04-19T03:32:42;12.10;99.90
23010;DHT22;11671;49.990;8.028;2023-04-19T03:35:08;12.00;99.90
23010;DHT22;11671;49.990;8.028;2023-04-19T03:37:34;12.10;99.90
23010;DHT22;11671;49.990;8.028;2023-04-19T03:40:00;12.20;99.90
23010;DHT22;11671;49.990;8.028;2023-04-19T03:42:25;12.20;99.90
23010;DHT22;11671;49.990;8.028;2023-04-19T03:44:51;12.20;99.90
23010;DHT22;11671;49.990;8.028;2023-04-19T03:47:16;12.30;99.90
23010;DHT22;11671;49.990;8.028;2023-04-19T03:49:42;12.20;99.90
23010;DHT22;11671;49.990;8.028;2023-04-19T03:52:07;12.30;99.90
23010;DHT22;11671;49.990;8.028;2023-04-19T03:54:33;12.30;99.90
23010;DHT22;11671;49.990;8.028;2023-04-19T03:56:59;12.30;99.90
23010;DHT22;11671;49.990;8.028;2023-04-19T03:59:24;12.30;99.90
23010;DHT22;11671;49.990;8.028;2023-04-19T04:01:50;12.30;99.90
23010;DHT22;11671;49.990;8.028;2023-04-19T04:04:15;12.20;99.90
23010;DHT22;11671;49.990;8.028;2023-04-19T04:06:41;12.30;99.90
23010;DHT22;11671;49.990;8.028;2023-04-19T04:09:07;12.30;99.90
23010;DHT22;11671;49.990;8.028;2023-04-19T04:11:32;12.30;99.90
23010;DHT22;11671;49.990;8.028;2023-04-19T04:13:58;12.20;99.90
23010;DHT22;11671;49.990;8.028;2023-04-19T04:16:23;12.20;99.90
23010;DHT22;11671;49.990;8.028;2023-04-19T04:18:49;12.30;99.90
23010;DHT22;11671;49.990;8.028;2023-04-19T04:21:15;12.30;99.90
23010;DHT22;11671;49.990;8.028;2023-04-19T04:23:40;12.40;99.90
23010;DHT22;11671;49.990;8.028;2023-04-19T04:26:06;12.30;99.90
23010;DHT22;11671;49.990;8.028;2023-04-19T04:28:34;12.30;99.90
23010;DHT22;11671;49.990;8.028;2023-04-19T04:31:00;12.30;99.90
23010;DHT22;11671;49.990;8.028;2023-04-19T04:33:27;12.30;99.90
23010;DHT22;11671;49.990;8.028;2023-04-19T04:35:53;12.30;99.90
23010;DHT22;11671;49.990;8.028;2023-04-19T04:38:19;12.30;99.90
23010;DHT22;11671;49.990;8.028;2023-04-19T04:40:49;12.40;99.90
23010;DHT22;11671;49.990;8.028;2023-04-19T04:43:15;12.40;99.90
23010;DHT22;11671;49.990;8.028;2023-04-19T04:45:41;12.40;99.90
23010;DHT22;11671;49.990;8.028;2023-04-19T04:48:08;12.40;99.90
23010;DHT22;11671;49.990;8.028;2023-04-19T04:50:34;12.40;99.90
23010;DHT22;11671;49.990;8.028;2023-04-19T04:52:59;12.40;99.90
23010;DHT22;11671;49.990;8.028;2023-04-19T04:55:25;12.40;99.90
23010;DHT22;11671;49.990;8.028;2023-04-19T04:57:50;12.40;99.90
23010;DHT22;11671;49.990;8.028;2023-04-19T05:00:16;12.40;99.90
23010;DHT22;11671;49.990;8.028;2023-04-19T05:02:42;12.40;99.90
23010;DHT22;11671;49.990;8.028;2023-04-19T05:05:07;12.40;99.90
23010;DHT22;11671;49.990;8.028;2023-04-19T05:07:35;12.30;99.90
23010;DHT22;11671;49.990;8.028;2023-04-19T05:10:01;12.30;99.90
23010;DHT22;11671;49.990;8.028;2023-04-19T05:12:26;12.30;99.90
23010;DHT22;11671;49.990;8.028;2023-04-19T05:14:52;12.40;99.90
23010;DHT22;11671;49.990;8.028;2023-04-19T05:17:17;12.50;99.90
23010;DHT22;11671;49.990;8.028;2023-04-19T05:19:43;12.50;99.90
23010;DHT22;11671;49.990;8.028;2023-04-19T05:22:09;12.50;99.90
23010;DHT22;11671;49.990;8.028;2023-04-19T05:24:35;12.50;99.90
23010;DHT22;11671;49.990;8.028;2023-04-19T05:27:01;12.60;99.90
23010;DHT22;11671;49.990;8.028;2023-04-19T05:29:26;12.60;99.90
23010;DHT22;11671;49.990;8.028;2023-04-19T05:31:52;12.60;99.90
23010;DHT22;11671;49.990;8.028;2023-04-19T05:34:17;12.70;99.90
23010;DHT22;11671;49.990;8.028;2023-04-19T05:36:43;12.70;99.90
23010;DHT22;11671;49.990;8.028;2023-04-19T05:39:08;12.60;99.90
23010;DHT22;11671;49.990;8.028;2023-04-19T05:41:34;12.60;99.90
23010;DHT22;11671;49.990;8.028;2023-04-19T05:44:00;12.70;99.90
23010;DHT22;11671;49.990;8.028;2023-04-19T05:46:25;12.70;99.90
23010;DHT22;11671;49.990;8.028;2023-04-19T05:48:51;12.60;99.90
23010;DHT22;11671;49.990;8.028;2023-04-19T05:51:17;12.60;99.90
23010;DHT22;11671;49.990;8.028;2023-04-19T05:53:44;12.60;99.90
23010;DHT22;11671;49.990;8.028;2023-04-19T05:56:10;12.70;99.90
23010;DHT22;11671;49.990;8.028;2023-04-19T05:58:36;12.70;99.90
23010;DHT22;11671;49.990;8.028;2023-04-19T06:01:02;12.80;99.90
23010;DHT22;11671;49.990;8.028;2023-04-19T06:03:29;12.80;99.90
23010;DHT22;11671;49.990;8.028;2023-04-19T06:05:54;12.70;99.90
23010;DHT22;11671;49.990;8.028;2023-04-19T06:08:20;12.70;99.90
23010;DHT22;11671;49.990;8.028;2023-04-19T06:10:45;12.70;99.90
23010;DHT22;11671;49.990;8.028;2023-04-19T06:13:14;12.70;99.90
23010;DHT22;11671;49.990;8.028;2023-04-19T06:15:40;12.80;99.90
23010;DHT22;11671;49.990;8.028;2023-04-19T06:18:06;12.80;99.90
23010;DHT22;11671;49.990;8.028;2023-04-19T06:20:38;12.90;99.90
23010;DHT22;11671;49.990;8.028;2023-04-19T06:23:05;13.00;99.90
23010;DHT22;11671;49.990;8.028;2023-04-19T06:25:31;13.20;99.90
23010;DHT22;11671;49.990;8.028;2023-04-19T06:27:57;13.20;99.90
23010;DHT22;11671;49.990;8.028;2023-04-19T06:30:23;13.40;99.90
23010;DHT22;11671;49.990;8.028;2023-04-19T06:32:48;13.50;99.90
23010;DHT22;11671;49.990;8.028;2023-04-19T06:35:14;13.70;99.90
23010;DHT22;11671;49.990;8.028;2023-04-19T06:37:40;13.70;99.90
23010;DHT22;11671;49.990;8.028;2023-04-19T06:40:06;13.90;99.90
23010;DHT22;11671;49.990;8.028;2023-04-19T06:42:33;14.20;99.90
23010;DHT22;11671;49.990;8.028;2023-04-19T06:44:59;14.30;99.90
23010;DHT22;11671;49.990;8.028;2023-04-19T06:47:25;14.30;99.90
23010;DHT22;11671;49.990;8.028;2023-04-19T06:49:50;14.20;99.90
23010;DHT22;11671;49.990;8.028;2023-04-19T06:52:16;14.10;99.90
23010;DHT22;11671;49.990;8.028;2023-04-19T06:54:45;13.80;99.90
23010;DHT22;11671;49.990;8.028;2023-04-19T06:57:11;13.70;99.90
23010;DHT22;11671;49.990;8.028;2023-04-19T06:59:36;13.60;99.90
23010;DHT22;11671;49.990;8.028;2023-04-19T07:02:04;13.80;99.90
23010;DHT22;11671;49.990;8.028;2023-04-19T07:04:29;14.10;99.90
23010;DHT22;11671;49.990;8.028;2023-04-19T07:06:55;14.10;99.90
23010;DHT22;11671;49.990;8.028;2023-04-19T07:09:21;14.10;99.90
23010;DHT22;11671;49.990;8.028;2023-04-19T07:11:46;14.20;99.90
23010;DHT22;11671;49.990;8.028;2023-04-19T07:14:12;14.30;99.90
23010;DHT22;11671;49.990;8.028;2023-04-19T07:16:38;14.20;99.90
23010;DHT22;11671;49.990;8.028;2023-04-19T07:19:04;14.20;99.90
23010;DHT22;11671;49.990;8.028;2023-04-19T07:21:29;14.10;99.90
23010;DHT22;11671;49.990;8.028;2023-04-19T07:23:58;14.20;99.90
23010;DHT22;11671;49.990;8.028;2023-04-19T07:26:24;14.20;99.90
23010;DHT22;11671;49.990;8.028;2023-04-19T07:28:49;14.30;99.90
23010;DHT22;11671;49.990;8.028;2023-04-19T07:31:16;14.20;99.90
23010;DHT22;11671;49.990;8.028;2023-04-19T07:33:43;14.00;99.90
23010;DHT22;11671;49.990;8.028;2023-04-19T07:36:09;14.10;99.90
23010;DHT22;11671;49.990;8.028;2023-04-19T07:38:34;14.10;99.90
23010;DHT22;11671;49.990;8.028;2023-04-19T07:41:00;14.10;99.90
23010;DHT22;11671;49.990;8.028;2023-04-19T07:43:26;14.30;99.90
23010;DHT22;11671;49.990;8.028;2023-04-19T07:45:53;14.50;99.90
23010;DHT22;11671;49.990;8.028;2023-04-19T07:48:19;14.30;99.90
23010;DHT22;11671;49.990;8.028;2023-04-19T07:50:45;14.30;99.90
23010;DHT22;11671;49.990;8.028;2023-04-19T07:53:10;14.60;99.90
23010;DHT22;11671;49.990;8.028;2023-04-19T07:55:36;14.80;99.90
23010;DHT22;11671;49.990;8.028;2023-04-19T07:58:01;14.90;99.90
23010;DHT22;11671;49.990;8.028;2023-04-19T08:00:27;14.90;99.90
23010;DHT22;11671;49.990;8.028;2023-04-19T08:02:55;14.70;99.90
23010;DHT22;11671;49.990;8.028;2023-04-19T08:05:21;14.80;99.90
23010;DHT22;11671;49.990;8.028;2023-04-19T08:07:49;14.50;99.90
23010;DHT22;11671;49.990;8.028;2023-04-19T08:10:17;14.40;99.90
23010;DHT22;11671;49.990;8.028;2023-04-19T08:12:42;14.20;99.90
23010;DHT22;11671;49.990;8.028;2023-04-19T08:15:08;14.10;99.90
23010;DHT22;11671;49.990;8.028;2023-04-19T08:17:34;14.10;99.90
23010;DHT22;11671;49.990;8.028;2023-04-19T08:19:59;14.40;99.90
23010;DHT22;11671;49.990;8.028;2023-04-19T08:22:25;14.60;99.90
23010;DHT22;11671;49.990;8.028;2023-04-19T08:24:51;14.90;99.90
23010;DHT22;11671;49.990;8.028;2023-04-19T08:27:18;15.00;99.90
23010;DHT22;11671;49.990;8.028;2023-04-19T08:29:44;15.00;99.90
23010;DHT22;11671;49.990;8.028;2023-04-19T08:32:11;15.10;99.90
23010;DHT22;11671;49.990;8.028;2023-04-19T08:34:38;15.00;99.90
23010;DHT22;11671;49.990;8.028;2023-04-19T08:37:04;14.90;99.90
23010;DHT22;11671;49.990;8.028;2023-04-19T08:39:32;14.80;99.90
23010;DHT22;11671;49.990;8.028;2023-04-19T08:42:06;14.90;99.90
23010;DHT22;11671;49.990;8.028;2023-04-19T08:44:33;15.10;99.90
23010;DHT22;11671;49.990;8.028;2023-04-19T08:46:59;15.40;99.90
23010;DHT22;11671;49.990;8.028;2023-04-19T08:49:28;15.50;99.90
23010;DHT22;11671;49.990;8.028;2023-04-19T08:51:54;15.70;99.90
23010;DHT22;11671;49.990;8.028;2023-04-19T08:54:22;15.50;99.90
23010;DHT22;11671;49.990;8.028;2023-04-19T08:56:48;15.40;99.90
23010;DHT22;11671;49.990;8.028;2023-04-19T08:59:14;15.30;99.90
23010;DHT22;11671;49.990;8.028;2023-04-19T09:01:40;15.50;99.90
23010;DHT22;11671;49.990;8.028;2023-04-19T09:04:06;15.50;99.90
23010;DHT22;11671;49.990;8.028;2023-04-19T09:06:36;15.40;99.90
23010;DHT22;11671;49.990;8.028;2023-04-19T09:09:19;15.40;99.90
23010;DHT22;11671;49.990;8.028;2023-04-19T09:11:44;15.40;99.90
23010;DHT22;11671;49.990;8.028;2023-04-19T09:14:10;15.40;99.90
23010;DHT22;11671;49.990;8.028;2023-04-19T09:16:36;15.40;99.90
23010;DHT22;11671;49.990;8.028;2023-04-19T09:19:03;15.60;99.90
23010;DHT22;11671;49.990;8.028;2023-04-19T09:21:30;15.50;99.90
23010;DHT22;11671;49.990;8.028;2023-04-19T09:23:56;15.50;99.90
23010;DHT22;11671;49.990;8.028;2023-04-19T09:26:22;15.80;99.90
23010;DHT22;11671;49.990;8.028;2023-04-19T09:29:00;16.00;99.90
23010;DHT22;11671;49.990;8.028;2023-04-19T09:31:31;16.10;99.90
23010;DHT22;11671;49.990;8.028;2023-04-19T09:33:56;16.10;99.90
23010;DHT22;11671;49.990;8.028;2023-04-19T09:36:29;16.10;99.90
23010;DHT22;11671;49.990;8.028;2023-04-19T09:38:56;16.10;99.90
23010;DHT22;11671;49.990;8.028;2023-04-19T09:41:22;16.00;99.90
23010;DHT22;11671;49.990;8.028;2023-04-19T09:43:47;15.80;99.90
23010;DHT22;11671;49.990;8.028;2023-04-19T09:46:34;15.70;99.90
23010;DHT22;11671;49.990;8.028;2023-04-19T09:49:19;15.80;99.90
23010;DHT22;11671;49.990;8.028;2023-04-19T09:51:51;15.90;99.90
23010;DHT22;11671;49.990;8.028;2023-04-19T09:54:18;16.20;99.90
23010;DHT22;11671;49.990;8.028;2023-04-19T09:56:45;16.50;99.90
23010;DHT22;11671;49.990;8.028;2023-04-19T09:59:11;16.50;99.90
23010;DHT22;11671;49.990;8.028;2023-04-19T10:01:51;16.60;99.90
23010;DHT22;11671;49.990;8.028;2023-04-19T10:04:19;16.30;99.90
23010;DHT22;11671;49.990;8.028;2023-04-19T10:06:48;16.40;99.90
23010;DHT22;11671;49.990;8.028;2023-04-19T10:09:15;16.30;99.90
23010;DHT22;11671;49.990;8.028;2023-04-19T10:11:47;16.50;99.90
23010;DHT22;11671;49.990;8.028;2023-04-19T10:14:14;16.70;99.90
23010;DHT22;11671;49.990;8.028;2023-04-19T10:16:40;16.80;99.90
23010;DHT22;11671;49.990;8.028;2023-04-19T10:19:12;16.50;99.90
23010;DHT22;11671;49.990;8.028;2023-04-19T10:21:40;16.30;99.90
23010;DHT22;11671;49.990;8.028;2023-04-19T10:24:07;16.10;99.90
23010;DHT22;11671;49.990;8.028;2023-04-19T10:29:59;16.10;99.90
23010;DHT22;11671;49.990;8.028;2023-04-19T10:32:44;16.10;99.90
23010;DHT22;11671;49.990;8.028;2023-04-19T10:35:17;16.00;99.90
23010;DHT22;11671;49.990;8.028;2023-04-19T10:43:19;16.40;99.90
23010;DHT22;11671;49.990;8.028;2023-04-19T10:45:45;16.50;99.90
23010;DHT22;11671;49.990;8.028;2023-04-19T10:48:55;16.80;99.90
23010;DHT22;11671;49.990;8.028;2023-04-19T10:51:38;17.10;99.90
23010;DHT22;11671;49.990;8.028;2023-04-19T10:57:08;17.50;99.90
23010;DHT22;11671;49.990;8.028;2023-04-19T10:59:36;17.80;99.90
23010;DHT22;11671;49.990;8.028;2023-04-19T11:02:04;18.20;99.90
23010;DHT22;11671;49.990;8.028;2023-04-19T11:07:02;18.10;99.90
23010;DHT22;11671;49.990;8.028;2023-04-19T11:09:35;18.20;99.90
23010;DHT22;11671;49.990;8.028;2023-04-19T11:12:05;17.90;99.90
23010;DHT22;11671;49.990;8.028;2023-04-19T11:14:35;17.80;99.90
23010;DHT22;11671;49.990;8.028;2023-04-19T11:17:12;17.60;99.90
23010;DHT22;11671;49.990;8.028;2023-04-19T11:19:44;17.70;99.90
23010;DHT22;11671;49.990;8.028;2023-04-19T11:22:17;17.90;99.90
23010;DHT22;11671;49.990;8.028;2023-04-19T11:24:45;17.60;99.90
23010;DHT22;11671;49.990;8.028;2023-04-19T11:27:14;17.70;99.90
23010;DHT22;11671;49.990;8.028;2023-04-19T11:29:40;17.90;99.90
23010;DHT22;11671;49.990;8.028;2023-04-19T11:32:05;17.90;99.90
23010;DHT22;11671;49.990;8.028;2023-04-19T11:34:39;17.90;99.90
23010;DHT22;11671;49.990;8.028;2023-04-19T11:37:04;18.40;99.90
23010;DHT22;11671;49.990;8.028;2023-04-19T11:39:30;18.40;99.90
23010;DHT22;11671;49.990;8.028;2023-04-19T11:41:56;18.60;99.90
23010;DHT22;11671;49.990;8.028;2023-04-19T11:44:22;18.60;99.90
23010;DHT22;11671;49.990;8.028;2023-04-19T11:47:01;18.30;99.90
23010;DHT22;11671;49.990;8.028;2023-04-19T11:49:28;18.00;99.90
23010;DHT22;11671;49.990;8.028;2023-04-19T11:51:55;17.80;99.90
23010;DHT22;11671;49.990;8.028;2023-04-19T11:54:23;17.70;99.90
23010;DHT22;11671;49.990;8.028;2023-04-19T11:59:28;17.80;99.90
23010;DHT22;11671;49.990;8.028;2023-04-19T12:01:54;17.90;99.90
23010;DHT22;11671;49.990;8.028;2023-04-19T12:04:20;18.20;99.90
23010;DHT22;11671;49.990;8.028;2023-04-19T12:06:56;18.30;99.90
23010;DHT22;11671;49.990;8.028;2023-04-19T12:09:22;18.30;99.90
23010;DHT22;11671;49.990;8.028;2023-04-19T12:11:51;18.50;99.90
23010;DHT22;11671;49.990;8.028;2023-04-19T12:14:18;18.30;99.90
23010;DHT22;11671;49.990;8.028;2023-04-19T12:16:53;17.90;99.90
23010;DHT22;11671;49.990;8.028;2023-04-19T12:19:27;17.80;99.90
23010;DHT22;11671;49.990;8.028;2023-04-19T12:22:16;17.80;99.90
23010;DHT22;11671;49.990;8.028;2023-04-19T12:24:44;17.90;99.90
23010;DHT22;11671;49.990;8.028;2023-04-19T12:27:10;18.20;99.90
23010;DHT22;11671;49.990;8.028;2023-04-19T12:29:36;18.40;99.90
23010;DHT22;11671;49.990;8.028;2023-04-19T12:32:02;18.40;99.90
23010;DHT22;11671;49.990;8.028;2023-04-19T12:34:28;18.30;99.90
23010;DHT22;11671;49.990;8.028;2023-04-19T12:36:54;18.40;99.90
23010;DHT22;11671;49.990;8.028;2023-04-19T12:39:19;18.40;99.90
23010;DHT22;11671;49.990;8.028;2023-04-19T12:41:45;18.60;99.90
23010;DHT22;11671;49.990;8.028;2023-04-19T12:44:13;18.80;99.90
23010;DHT22;11671;49.990;8.028;2023-04-19T12:46:40;18.80;99.90
23010;DHT22;11671;49.990;8.028;2023-04-19T12:49:05;19.00;99.90
23010;DHT22;11671;49.990;8.028;2023-04-19T12:51:31;18.60;99.90
23010;DHT22;11671;49.990;8.028;2023-04-19T12:53:57;18.40;99.90
23010;DHT22;11671;49.990;8.028;2023-04-19T12:56:22;18.40;99.90
23010;DHT22;11671;49.990;8.028;2023-04-19T12:58:48;18.50;99.90
23010;DHT22;11671;49.990;8.028;2023-04-19T13:01:14;18.50;99.90
23010;DHT22;11671;49.990;8.028;2023-04-19T13:03:39;18.50;99.90
23010;DHT22;11671;49.990;8.028;2023-04-19T13:06:05;18.60;99.90
23010;DHT22;11671;49.990;8.028;2023-04-19T13:08:31;18.50;99.60
23010;DHT22;11671;49.990;8.028;2023-04-19T13:10:57;18.80;99.10
23010;DHT22;11671;49.990;8.028;2023-04-19T13:13:27;18.90;97.60
23010;DHT22;11671;49.990;8.028;2023-04-19T13:15:53;19.00;95.00
23010;DHT22;11671;49.990;8.028;2023-04-19T13:18:19;19.00;95.00
23010;DHT22;11671;49.990;8.028;2023-04-19T13:20:45;19.20;97.30
23010;DHT22;11671;49.990;8.028;2023-04-19T13:23:11;19.00;94.30
23010;DHT22;11671;49.990;8.028;2023-04-19T13:25:36;19.00;94.20
23010;DHT22;11671;49.990;8.028;2023-04-19T13:28:02;18.70;94.90
23010;DHT22;11671;49.990;8.028;2023-04-19T13:30:28;18.80;94.00
23010;DHT22;11671;49.990;8.028;2023-04-19T13:32:53;18.90;94.70
23010;DHT22;11671;49.990;8.028;2023-04-19T13:35:19;18.80;94.80
23010;DHT22;11671;49.990;8.028;2023-04-19T13:37:45;18.80;94.00
23010;DHT22;11671;49.990;8.028;2023-04-19T13:40:12;18.30;91.70
23010;DHT22;11671;49.990;8.028;2023-04-19T13:42:38;18.80;92.40
23010;DHT22;11671;49.990;8.028;2023-04-19T13:45:03;19.30;92.80
23010;DHT22;11671;49.990;8.028;2023-04-19T13:47:29;19.40;91.30
23010;DHT22;11671;49.990;8.028;2023-04-19T13:49:55;19.10;91.30
23010;DHT22;11671;49.990;8.028;2023-04-19T13:52:20;18.90;91.40
23010;DHT22;11671;49.990;8.028;2023-04-19T13:54:48;18.80;90.70
23010;DHT22;11671;49.990;8.028;2023-04-19T13:57:14;19.10;90.80
23010;DHT22;11671;49.990;8.028;2023-04-19T13:59:40;19.10;89.30
23010;DHT22;11671;49.990;8.028;2023-04-19T14:02:05;19.20;88.20
23010;DHT22;11671;49.990;8.028;2023-04-19T14:04:31;18.80;83.10
23010;DHT22;11671;49.990;8.028;2023-04-19T14:06:57;18.70;85.70
23010;DHT22;11671;49.990;8.028;2023-04-19T14:09:23;18.80;86.60
23010;DHT22;11671;49.990;8.028;2023-04-19T14:11:49;18.80;84.30
23010;DHT22;11671;49.990;8.028;2023-04-19T14:14:15;19.10;82.70
23010;DHT22;11671;49.990;8.028;2023-04-19T14:16:40;19.10;79.00
23010;DHT22;11671;49.990;8.028;2023-04-19T14:19:06;19.00;78.30
23010;DHT22;11671;49.990;8.028;2023-04-19T14:21:31;18.80;80.30
23010;DHT22;11671;49.990;8.028;2023-04-19T14:23:58;18.40;81.60
23010;DHT22;11671;49.990;8.028;2023-04-19T14:26:23;18.60;81.10
23010;DHT22;11671;49.990;8.028;2023-04-19T14:28:49;18.80;78.90
23010;DHT22;11671;49.990;8.028;2023-04-19T14:31:14;18.90;78.90
23010;DHT22;11671;49.990;8.028;2023-04-19T14:33:40;18.60;80.10
23010;DHT22;11671;49.990;8.028;2023-04-19T14:36:06;18.50;81.50
23010;DHT22;11671;49.990;8.028;2023-04-19T14:38:32;18.20;79.90
23010;DHT22;11671;49.990;8.028;2023-04-19T14:40:58;18.20;79.20
23010;DHT22;11671;49.990;8.028;2023-04-19T14:43:26;18.30;79.30
23010;DHT22;11671;49.990;8.028;2023-04-19T14:45:52;18.20;79.00
23010;DHT22;11671;49.990;8.028;2023-04-19T14:48:18;17.90;79.00
23010;DHT22;11671;49.990;8.028;2023-04-19T14:50:47;17.60;80.10
23010;DHT22;11671;49.990;8.028;2023-04-19T14:53:13;17.60;82.70
23010;DHT22;11671;49.990;8.028;2023-04-19T14:55:38;17.50;80.50
23010;DHT22;11671;49.990;8.028;2023-04-19T14:58:04;17.40;79.20
23010;DHT22;11671;49.990;8.028;2023-04-19T15:00:30;17.20;79.60
23010;DHT22;11671;49.990;8.028;2023-04-19T15:02:55;17.10;80.00
23010;DHT22;11671;49.990;8.028;2023-04-19T15:05:21;17.00;79.80
23010;DHT22;11671;49.990;8.028;2023-04-19T15:07:50;17.00;78.60
23010;DHT22;11671;49.990;8.028;2023-04-19T15:10:16;17.10;78.00
23010;DHT22;11671;49.990;8.028;2023-04-19T15:12:41;17.30;77.50
23010;DHT22;11671;49.990;8.028;2023-04-19T15:15:07;17.10;76.00
23010;DHT22;11671;49.990;8.028;2023-04-19T15:17:33;17.20;74.80
23010;DHT22;11671;49.990;8.028;2023-04-19T15:19:58;16.90;71.90
23010;DHT22;11671;49.990;8.028;2023-04-19T15:22:24;17.00;72.60
23010;DHT22;11671;49.990;8.028;2023-04-19T15:24:51;17.20;73.40
23010;DHT22;11671;49.990;8.028;2023-04-19T15:27:16;16.90;70.20
23010;DHT22;11671;49.990;8.028;2023-04-19T15:29:42;17.10;70.00
23010;DHT22;11671;49.990;8.028;2023-04-19T15:32:07;17.00;68.60
23010;DHT22;11671;49.990;8.028;2023-04-19T15:34:33;17.10;69.10
23010;DHT22;11671;49.990;8.028;2023-04-19T15:36:58;17.20;68.50
23010;DHT22;11671;49.990;8.028;2023-04-19T15:39:26;17.00;66.70
23010;DHT22;11671;49.990;8.028;2023-04-19T15:41:51;17.10;66.00
23010;DHT22;11671;49.990;8.028;2023-04-19T15:44:17;17.10;67.30